Edson, Canada
Current Conditions -  °F | °C
As of 3:00 AM on Wednesday 26 Nov 2014 (Local Time) from CYET Reporting Station
Moderate Fog Moderate Fog  
Wind Chill: 14°   Ceiling: 200
Heat Index: 14°   Visibility: 0.37mi
Dew Point: 12°   Wind: 0mph
Humidity: 93%   Direction: NA
Pressure: 30.1"   Gusts: NA
Location:  53.58°N, 116.43°W
Report Text: CYET 261000Z AUTO 00000KT 3/8SM FZFG VV002 M10/M11 A3010 RMK ICG SLP249
Loading
Personal Weather Stations






























Interactive Weather Map New forecast layout! Learn more

10-Day Weather Forecast

Advertisements
Track Severe Weather on mobile